Time;durP1;ratioP1;P1;durP2;ratioP2;P2;SDS_P1;SDS_P2;PMS_P1;PMS_P2;Temp;Humidity;BMP_temperature;BMP_pressure;BME280_temperature;BME280_humidity;BME280_pressure;Samples;Min_cycle;Max_cycle;Signal;HPM_P1;HPM_P2
2024/04/13 00:00:34;;;;;;;18.67;13.20;;;;;;;;;;5373185;26;20442;-75
2024/04/13 00:03:01;;;;;;;16.45;12.75;;;;;;;;;;5376615;26;20073;-74
2024/04/13 00:05:27;;;;;;;16.83;13.48;;;;;;;;;;5377006;26;20161;-73
2024/04/13 00:07:55;;;;;;;19.48;14.38;;;;;;;;;;5377033;26;20319;-76
2024/04/13 00:10:23;;;;;;;20.80;12.90;;;;;;;;;;5376016;26;20060;-76
2024/04/13 00:12:51;;;;;;;14.93;12.52;;;;;;;;;;5376847;26;20438;-76
2024/04/13 00:15:18;;;;;;;18.98;13.57;;;;;;;;;;5353713;26;20014;-76
2024/04/13 00:17:44;;;;;;;20.55;12.70;;;;;;;;;;5376634;26;20012;-76
2024/04/13 00:20:10;;;;;;;21.50;12.73;;;;;;;;;;5376476;26;20000;-76
2024/04/13 00:22:37;;;;;;;15.25;12.77;;;;;;;;;;5377056;26;19996;-77
2024/04/13 00:25:04;;;;;;;20.45;13.48;;;;;;;;;;5376129;26;19992;-75
2024/04/13 00:27:30;;;;;;;15.45;13.85;;;384.30;2329.60;;;;;;5376497;26;20454;-76
2024/04/13 00:29:58;;;;;;;17.45;13.82;;;384.10;2329.60;;;;;;5376736;26;20000;-76
2024/04/13 00:32:25;;;;;;;14.38;11.70;;;384.10;2329.60;;;;;;5373083;26;20000;-79
2024/04/13 00:34:52;;;;;;;16.95;13.32;;;384.00;2329.60;;;;;;5376592;26;20022;-76
2024/04/13 00:37:18;;;;;;;15.90;12.43;;;384.20;2329.60;;;;;;5367987;26;20000;-75
2024/04/13 00:39:44;;;;;;;14.40;12.73;;;384.20;2329.60;;;;;;5374732;26;20422;-76
2024/04/13 00:42:10;;;;;;;22.45;12.75;;;384.30;2329.60;;;;;;5375437;26;20053;-75
2024/04/13 00:44:36;;;;;;;16.50;12.40;;;384.30;2329.60;;;;;;5374783;26;20286;-75
2024/04/13 00:47:05;;;;;;;24.55;13.20;;;384.30;2329.60;;;;;;5374338;26;20327;-75
2024/04/13 00:49:38;;;;;;;22.63;13.02;;;384.20;2329.60;;;;;;5372707;26;20076;-76
2024/04/13 00:52:07;;;;;;;13.43;11.15;;;384.20;2329.60;;;;;;5373930;26;20346;-74
2024/04/13 00:54:36;;;;;;;13.90;12.50;;;384.30;2329.60;;;;;;5371564;26;20000;-74
2024/04/13 00:57:03;;;;;;;18.75;11.98;;;384.30;2329.60;;;;;;5371400;26;20078;-73
2024/04/13 00:59:30;;;;;;;14.05;11.82;;;384.30;2329.60;;;;;;5371208;26;20000;-73
2024/04/13 01:01:59;;;;;;;20.17;11.90;;;384.20;2329.60;;;;;;5375703;26;20352;-76
2024/04/13 01:04:25;;;;;;;15.90;12.05;;;384.00;2329.60;;;;;;5376022;26;20001;-75
2024/04/13 01:06:51;;;;;;;14.02;12.13;;;384.00;2329.60;;;;;;5375385;26;20774;-75
2024/04/13 01:09:20;;;;;;;17.65;12.60;;;359.30;2329.60;;;;;;5376515;26;20430;-76
2024/04/13 01:11:46;;;;;;;18.90;13.30;;;359.20;2329.60;;;;;;5373191;26;20373;-76
2024/04/13 01:14:13;;;;;;;16.33;12.85;;;359.10;2329.60;;;;;;5358496;26;20001;-74
2024/04/13 01:16:39;;;;;;;16.02;12.15;;;359.10;2329.60;;;;;;5348788;26;19997;-74
2024/04/13 01:19:06;;;;;;;15.77;12.40;;;359.10;2329.60;;;;;;5347492;26;20055;-76
2024/04/13 01:21:33;;;;;;;15.85;11.48;;;359.10;2329.60;;;;;;5350184;26;20001;-76
2024/04/13 01:24:04;;;;;;;18.25;12.30;;;359.10;2329.60;;;;;;5375590;26;20011;-75
2024/04/13 01:26:41;;;;;;;15.88;13.05;;;359.10;2329.60;;;;;;5372986;26;20015;-75
2024/04/13 01:29:10;;;;;;;14.98;11.95;;;359.10;2329.60;;;;;;5374350;26;20077;-75
2024/04/13 01:31:37;;;;;;;15.70;12.00;;;359.10;2329.60;;;;;;5371128;26;20026;-75
2024/04/13 01:34:04;;;;;;;15.02;11.40;;;359.20;2329.60;;;;;;5372800;26;20004;-74
2024/04/13 01:36:40;;;;;;;15.70;11.13;;;359.00;2329.60;;;;;;5369339;26;20621;-75
2024/04/13 01:39:12;;;;;;;19.63;11.93;;;359.10;2329.60;;;;;;5371498;26;20004;-75
2024/04/13 01:41:50;;;;;;;13.85;11.77;;;359.10;2329.60;;;;;;5370112;26;20011;-74
2024/04/13 01:44:16;;;;;;;16.50;10.63;;;359.20;2329.60;;;;;;5368030;26;20324;-75
2024/04/13 01:46:42;;;;;;;16.52;11.90;;;384.00;2329.60;;;;;;5370321;26;20046;-75
2024/04/13 01:49:08;;;;;;;14.57;11.10;;;384.10;2329.60;;;;;;5371119;26;20000;-75
2024/04/13 01:51:34;;;;;;;14.57;12.38;;;384.10;2329.60;;;;;;5367466;26;20004;-75
2024/04/13 01:54:00;;;;;;;13.30;10.70;;;384.10;2329.60;;;;;;5375867;26;20549;-76
2024/04/13 01:56:27;;;;;;;15.75;11.48;;;384.20;2329.60;;;;;;5374779;26;20004;-75
2024/04/13 01:58:53;;;;;;;18.52;11.52;;;384.20;2329.60;;;;;;5375158;26;20011;-75
2024/04/13 02:01:20;;;;;;;16.80;11.57;;;384.20;2329.60;;;;;;5375298;26;20019;-76
2024/04/13 02:03:47;;;;;;;14.27;10.90;;;384.30;2329.60;;;;;;5375545;26;20419;-76
2024/04/13 02:06:12;;;;;;;14.43;9.95;;;384.40;2329.60;;;;;;5374959;26;20073;-75
2024/04/13 02:08:38;;;;;;;17.08;10.80;;;384.50;2329.60;;;;;;5374879;26;20000;-79
2024/04/13 02:11:07;;;;;;;14.48;10.43;;;384.60;2329.60;;;;;;5375759;26;20076;-76
2024/04/13 02:13:33;;;;;;;15.57;10.75;;;384.50;2329.60;;;;;;5374469;26;20011;-76
2024/04/13 02:16:00;;;;;;;12.40;11.13;;;384.50;2329.60;;;;;;5375646;26;20011;-76
2024/04/13 02:18:26;;;;;;;15.63;12.05;;;384.60;2329.60;;;;;;5375125;26;20066;-76
2024/04/13 02:20:52;;;;;;;16.60;10.82;;;384.40;2329.60;;;;;;5371641;26;20065;-76
2024/04/13 02:23:18;;;;;;;15.85;10.82;;;384.60;2329.60;;;;;;5372005;26;20008;-75
2024/04/13 02:25:47;;;;;;;16.60;11.15;;;384.70;2329.60;;;;;;5369821;26;19996;-76
2024/04/13 02:28:14;;;;;;;14.70;11.52;;;384.70;2329.60;;;;;;5351290;26;20769;-74
2024/04/13 02:30:40;;;;;;;13.00;11.27;;;384.80;2329.60;;;;;;5368624;26;20326;-76
2024/04/13 02:33:06;;;;;;;18.30;10.98;;;384.70;2329.60;;;;;;5370744;26;20445;-75
2024/04/13 02:35:32;;;;;;;15.75;11.80;;;384.70;2329.60;;;;;;5366550;26;20001;-77
2024/04/13 02:37:59;;;;;;;18.45;11.27;;;384.60;2329.60;;;;;;5370448;26;20004;-76
2024/04/13 02:40:24;;;;;;;25.75;11.65;;;384.60;2329.60;;;;;;5370409;26;20028;-76
2024/04/13 02:42:51;;;;;;;17.38;11.27;;;384.60;2329.60;;;;;;5372484;26;20793;-75
2024/04/13 02:45:18;;;;;;;16.23;10.43;;;384.70;2329.60;;;;;;5374859;26;20030;-76
2024/04/13 02:47:48;;;;;;;17.40;10.98;;;384.70;2329.60;;;;;;5373710;26;20000;-75
2024/04/13 02:50:16;;;;;;;15.82;11.18;;;384.60;2329.60;;;;;;5374572;26;20004;-75
2024/04/13 02:52:42;;;;;;;15.38;11.55;;;384.50;2329.60;;;;;;5374468;26;20019;-76
2024/04/13 02:55:09;;;;;;;16.10;11.63;;;384.60;2329.60;;;;;;5375081;26;19996;-76
2024/04/13 02:57:35;;;;;;;12.60;9.90;;;384.60;2329.60;;;;;;5366606;26;19997;-76
2024/04/13 03:00:01;;;;;;;17.70;10.95;;;384.60;2329.60;;;;;;5371920;26;20004;-77
2024/04/13 03:02:27;;;;;;;12.25;10.10;;;384.50;2329.60;;;;;;5374077;26;20426;-77
2024/04/13 03:04:53;;;;;;;14.88;10.57;;;384.60;2329.60;;;;;;5374421;26;19996;-77
2024/04/13 03:07:19;;;;;;;12.73;10.52;;;384.60;2329.60;;;;;;5374219;26;20042;-75
2024/04/13 03:09:50;;;;;;;12.85;11.25;;;384.40;2329.60;;;;;;5374572;26;20007;-77
2024/04/13 03:12:16;;;;;;;14.48;11.15;;;384.40;2329.60;;;;;;5374262;26;20000;-77
2024/04/13 03:14:45;;;;;;;12.95;10.77;;;384.30;2329.60;;;;;;5374174;26;20008;-75
2024/04/13 03:17:11;;;;;;;14.00;11.60;;;384.20;2329.60;;;;;;5366485;26;20439;-76
2024/04/13 03:19:38;;;;;;;14.32;12.57;;;384.20;2329.60;;;;;;5367361;26;20055;-76
2024/04/13 03:22:04;;;;;;;19.45;12.35;;;384.10;2329.60;;;;;;5374130;26;20040;-76
2024/04/13 03:24:33;;;;;;;16.52;12.32;;;359.30;2329.60;;;;;;5373570;26;20000;-77
2024/04/13 03:27:01;;;;;;;17.00;12.23;;;359.20;2329.60;;;;;;5374057;26;20418;-76
2024/04/13 03:29:26;;;;;;;19.80;11.60;;;384.40;2329.60;;;;;;5374126;26;20012;-75
2024/04/13 03:31:52;;;;;;;14.25;11.23;;;359.10;2329.60;;;;;;5373276;26;20012;-75
2024/04/13 03:34:18;;;;;;;16.23;12.15;;;359.10;2329.60;;;;;;5374619;26;20050;-75
2024/04/13 03:36:44;;;;;;;17.00;11.45;;;359.00;2329.60;;;;;;5375123;26;20082;-75
2024/04/13 03:39:10;;;;;;;17.70;10.70;;;359.00;2329.60;;;;;;5377534;26;20008;-75
2024/04/13 03:41:36;;;;;;;16.02;12.25;;;359.00;2329.60;;;;;;5376888;26;20081;-75
2024/04/13 03:44:02;;;;;;;15.63;11.90;;;359.10;2329.60;;;;;;5376879;26;20418;-75
2024/04/13 03:46:28;;;;;;;15.15;11.88;;;359.10;2329.60;;;;;;5377001;26;20025;-75
2024/04/13 03:48:54;;;;;;;14.23;11.48;;;359.20;2329.60;;;;;;5377249;26;20068;-74
2024/04/13 03:51:19;;;;;;;17.80;12.10;;;359.10;2329.60;;;;;;5377628;26;20008;-75
2024/04/13 03:53:46;;;;;;;16.17;11.05;;;359.20;2329.60;;;;;;5377487;26;20073;-76
2024/04/13 03:56:12;;;;;;;15.45;11.15;;;359.20;2329.60;;;;;;5376733;26;20004;-75
2024/04/13 03:58:38;;;;;;;15.48;11.60;;;359.30;2329.60;;;;;;5376875;26;20032;-75
2024/04/13 04:01:04;;;;;;;13.45;10.82;;;359.20;2329.60;;;;;;5376433;26;20011;-76
2024/04/13 04:03:30;;;;;;;16.73;11.18;;;359.30;2329.60;;;;;;5376912;26;20012;-76
2024/04/13 04:05:56;;;;;;;16.48;10.85;;;384.00;2329.60;;;;;;5376533;26;20404;-77
2024/04/13 04:08:22;;;;;;;13.40;11.65;;;384.00;2329.60;;;;;;5376981;26;20001;-77
2024/04/13 04:10:48;;;;;;;17.17;12.07;;;384.10;2329.60;;;;;;5377521;26;20005;-75
2024/04/13 04:13:14;;;;;;;17.55;12.30;;;384.20;2329.60;;;;;;5375982;26;20073;-75
2024/04/13 04:15:41;;;;;;;17.25;12.00;;;384.20;2329.60;;;;;;5376833;26;20621;-75
2024/04/13 04:18:07;;;;;;;16.83;12.55;;;384.30;2329.60;;;;;;5377069;26;20010;-75
2024/04/13 04:20:36;;;;;;;22.10;11.43;;;384.30;2329.60;;;;;;5376710;26;20000;-75
2024/04/13 04:23:01;;;;;;;14.85;12.35;;;384.40;2329.60;;;;;;5376788;26;20137;-75
2024/04/13 04:25:28;;;;;;;16.02;12.05;;;384.60;2329.60;;;;;;5376629;26;20012;-75
2024/04/13 04:27:55;;;;;;;15.93;12.70;;;384.60;2329.60;;;;;;5376570;26;20411;-74
2024/04/13 04:30:21;;;;;;;16.92;14.10;;;384.70;2329.60;;;;;;5376129;26;20468;-76
2024/04/13 04:32:47;;;;;;;18.48;13.98;;;384.60;2329.60;;;;;;5377287;26;20040;-75
2024/04/13 04:35:13;;;;;;;16.48;11.85;;;384.60;2329.60;;;;;;5376555;26;20004;-75
2024/04/13 04:37:38;;;;;;;15.20;12.00;;;384.90;2329.60;;;;;;5377005;26;20032;-75
2024/04/13 04:40:08;;;;;;;13.35;11.20;;;384.70;2329.60;;;;;;5376247;26;20019;-75
2024/04/13 04:42:34;;;;;;;15.35;11.05;;;409.70;2355.20;;;;;;5375936;26;20012;-76
2024/04/13 04:45:00;;;;;;;11.43;10.02;;;409.90;2355.20;;;;;;5366124;26;20000;-76
2024/04/13 04:47:26;;;;;;;20.20;11.68;;;410.00;2355.20;;;;;;5375026;26;20015;-76
2024/04/13 04:49:52;;;;;;;12.30;10.50;;;410.00;2355.20;;;;;;5375734;26;20452;-75
2024/04/13 04:52:21;;;;;;;14.98;12.13;;;410.20;2355.20;;;;;;5368807;26;20005;-77
2024/04/13 04:54:49;;;;;;;16.98;11.77;;;410.30;2355.20;;;;;;5372598;26;20004;-75
2024/04/13 04:57:15;;;;;;;17.15;11.95;;;410.30;2355.20;;;;;;5375954;26;20012;-76
2024/04/13 04:59:41;;;;;;;12.02;10.75;;;410.30;2355.20;;;;;;5368694;26;20028;-76
2024/04/13 05:02:07;;;;;;;13.50;11.02;;;410.50;2355.20;;;;;;5361762;26;20000;-75
2024/04/13 05:04:33;;;;;;;12.20;10.27;;;435.20;2355.20;;;;;;5376054;26;20004;-76
2024/04/13 05:06:59;;;;;;;16.90;10.48;;;461.00;2380.80;;;;;;5375894;26;20000;-75
2024/04/13 05:09:26;;;;;;;11.30;8.65;;;487.10;2380.80;;;;;;5376387;26;20004;-77
2024/04/13 05:11:52;;;;;;;11.18;9.35;;;512.90;2380.80;;;;;;5375219;26;20045;-76
2024/04/13 05:14:19;;;;;;;12.40;10.05;;;538.10;2406.40;;;;;;5376612;26;20004;-76
2024/04/13 05:16:46;;;;;;;14.07;9.50;;;563.30;2432.00;;;;;;5375887;26;20012;-77
2024/04/13 05:19:13;;;;;;;10.93;9.75;;;563.60;2380.80;;;;;;5376341;26;20033;-76
2024/04/13 05:21:39;;;;;;;13.88;9.13;;;588.80;2329.60;;;;;;5376040;26;19997;-77
2024/04/13 05:24:05;;;;;;;14.80;8.77;;;614.40;2201.60;;;;;;5376330;26;20421;-77
2024/04/13 05:26:31;;;;;;;11.73;9.80;;;615.10;2124.80;;;;;;5375241;26;20012;-79
2024/04/13 05:28:57;;;;;;;11.25;9.27;;;640.00;2073.60;;;;;;5376091;26;20358;-77
2024/04/13 05:31:23;;;;;;;12.40;9.80;;;640.00;2048.00;;;;;;5375831;26;20004;-77
2024/04/13 05:33:49;;;;;;;12.60;9.48;;;640.10;2022.40;;;;;;5376545;26;20015;-78
2024/04/13 05:36:16;;;;;;;16.55;11.02;;;640.60;1971.20;;;;;;5375965;26;20051;-77
2024/04/13 05:38:41;;;;;;;11.40;9.40;;;666.30;1894.40;;;;;;5375657;26;20004;-78
2024/04/13 05:41:07;;;;;;;10.32;9.35;;;691.80;1843.20;;;;;;5375730;26;20018;-78
2024/04/13 05:43:33;;;;;;;10.88;9.82;;;716.80;1817.60;;;;;;5375247;26;20004;-78
2024/04/13 05:46:02;;;;;;;11.95;10.00;;;717.60;1715.20;;;;;;5351848;26;20714;-76
2024/04/13 05:48:28;;;;;;;11.15;10.00;;;742.80;1715.20;;;;;;5375335;26;20012;-78
2024/04/13 05:50:58;;;;;;;12.90;10.60;;;743.30;1689.60;;;;;;5375669;26;20102;-76
2024/04/13 05:53:25;;;;;;;10.77;9.75;;;768.50;1612.80;;;;;;5375649;26;20004;-78
2024/04/13 05:55:50;;;;;;;10.48;9.45;;;768.90;1612.80;;;;;;5375357;26;20338;-78
2024/04/13 05:58:20;;;;;;;10.23;9.13;;;794.10;1612.80;;;;;;5375879;26;20010;-78
2024/04/13 06:00:48;;;;;;;11.45;10.35;;;819.30;1561.60;;;;;;5374409;26;20005;-77
2024/04/13 06:03:20;;;;;;;11.57;10.50;;;819.30;1561.60;;;;;;5367958;26;20012;-76
2024/04/13 06:05:46;;;;;;;14.18;9.35;;;819.60;1536.00;;;;;;5375309;26;20773;-76
2024/04/13 06:08:12;;;;;;;12.30;9.82;;;819.90;1510.40;;;;;;5375197;26;20008;-76
2024/04/13 06:10:38;;;;;;;10.45;9.40;;;819.80;1510.40;;;;;;5375526;26;20030;-78
2024/04/13 06:13:04;;;;;;;10.55;9.55;;;819.80;1510.40;;;;;;5364139;26;20001;-76
2024/04/13 06:15:29;;;;;;;11.65;9.50;;;844.90;1510.40;;;;;;5374465;26;20000;-78
2024/04/13 06:17:57;;;;;;;12.00;10.68;;;845.20;1484.80;;;;;;5361253;26;19996;-78
2024/04/13 06:20:23;;;;;;;13.32;11.18;;;845.20;1510.40;;;;;;5374415;26;20000;-76
2024/04/13 06:22:49;;;;;;;11.07;10.10;;;845.70;1459.20;;;;;;5376088;26;20074;-76
2024/04/13 06:25:16;;;;;;;11.60;10.55;;;870.80;1433.60;;;;;;5374899;26;19992;-77
2024/04/13 06:27:42;;;;;;;12.73;10.63;;;871.10;1408.00;;;;;;5374826;26;20473;-77
2024/04/13 06:30:09;;;;;;;14.75;11.35;;;896.20;1382.40;;;;;;5374256;26;19992;-77
2024/04/13 06:32:36;;;;;;;13.30;11.43;;;896.60;1356.80;;;;;;5375081;26;19996;-77
2024/04/13 06:35:02;;;;;;;13.60;12.23;;;896.90;1356.80;;;;;;5366202;26;19997;-77
2024/04/13 06:37:29;;;;;;;13.20;11.85;;;896.40;1356.80;;;;;;5362457;26;20069;-77
2024/04/13 06:39:55;;;;;;;16.15;13.07;;;896.90;1331.20;;;;;;5374476;26;20364;-77
2024/04/13 06:42:21;;;;;;;14.13;12.85;;;896.90;1331.20;;;;;;5375157;26;19996;-77
2024/04/13 06:44:47;;;;;;;16.75;11.65;;;896.90;1331.20;;;;;;5374131;26;20032;-76
2024/04/13 06:47:13;;;;;;;13.23;11.93;;;921.80;1356.80;;;;;;5374959;26;20432;-77
2024/04/13 06:49:38;;;;;;;13.60;12.35;;;947.40;1280.00;;;;;;5373710;26;20392;-76
2024/04/13 06:52:04;;;;;;;13.73;12.38;;;922.40;1305.60;;;;;;5375172;26;20425;-76
2024/04/13 06:54:30;;;;;;;13.70;12.30;;;947.20;1280.00;;;;;;5366081;26;19992;-76
2024/04/13 06:56:56;;;;;;;13.90;11.05;;;922.40;1305.60;;;;;;5364365;26;19993;-78
2024/04/13 06:59:22;;;;;;;12.65;11.45;;;947.60;1280.00;;;;;;5361951;26;20069;-76
2024/04/13 07:01:49;;;;;;;12.50;11.32;;;972.80;1254.40;;;;;;5362955;26;20370;-76
2024/04/13 07:04:15;;;;;;;13.52;11.50;;;973.20;1254.40;;;;;;5358798;26;19998;-77
2024/04/13 07:06:41;;;;;;;13.25;11.90;;;973.20;1254.40;;;;;;5368060;26;20500;-76
2024/04/13 07:09:08;;;;;;;12.73;11.55;;;973.60;1203.20;;;;;;5374298;26;20006;-75
2024/04/13 07:11:34;;;;;;;13.02;11.32;;;973.50;1203.20;;;;;;5372950;26;20004;-75
2024/04/13 07:14:00;;;;;;;12.15;10.73;;;998.40;1203.20;;;;;;5374104;26;20442;-76
2024/04/13 07:16:26;;;;;;;12.68;11.48;;;973.40;1203.20;;;;;;5374288;26;20004;-76
2024/04/13 07:18:51;;;;;;;14.90;10.85;;;973.60;1177.60;;;;;;5373458;26;19996;-76
2024/04/13 07:21:17;;;;;;;11.13;10.07;;;973.60;1177.60;;;;;;5374884;26;20004;-76
2024/04/13 07:23:43;;;;;;;11.82;9.55;;;999.00;1152.00;;;;;;5373656;26;20446;-76
2024/04/13 07:26:09;;;;;;;11.43;10.23;;;973.70;1126.40;;;;;;5374591;26;19996;-76
2024/04/13 07:28:35;;;;;;;12.90;9.98;;;998.50;1177.60;;;;;;5372826;26;20000;-76
2024/04/13 07:31:01;;;;;;;13.50;10.98;;;973.70;1152.00;;;;;;5372714;26;20177;-75
2024/04/13 07:33:27;;;;;;;10.60;9.65;;;999.30;1152.00;;;;;;5374525;26;19996;-76
2024/04/13 07:35:53;;;;;;;13.35;9.85;;;1024.40;1126.40;;;;;;5373161;26;19992;-77
2024/04/13 07:38:34;;;;;;;14.48;10.93;;;1024.10;1126.40;;;;;;5374877;26;20054;-77
2024/04/13 07:41:00;;;;;;;11.43;10.20;;;1024.50;1100.80;;;;;;5373644;26;20400;-77
2024/04/13 07:43:26;;;;;;;10.27;9.30;;;1024.40;1100.80;;;;;;5373804;26;20011;-75
2024/04/13 07:45:52;;;;;;;14.07;9.05;;;1024.70;1075.20;;;;;;5372933;26;20308;-76
2024/04/13 07:48:18;;;;;;;9.60;8.57;;;1049.80;1100.80;;;;;;5371466;26;20351;-76
2024/04/13 07:50:43;;;;;;;12.35;9.07;;;1024.20;1100.80;;;;;;5371309;26;20715;-77
2024/04/13 07:53:09;;;;;;;10.70;9.23;;;1024.50;1075.20;;;;;;5373655;26;20011;-76
2024/04/13 07:55:35;;;;;;;10.45;8.40;;;1050.00;1049.60;;;;;;5373339;26;20086;-75
2024/04/13 07:58:01;;;;;;;9.02;8.07;;;1050.20;1049.60;;;;;;5373792;26;20000;-76
2024/04/13 08:00:27;;;;;;;11.10;8.95;;;1050.20;1049.60;;;;;;5373518;26;19996;-76
2024/04/13 08:02:53;;;;;;;10.90;8.05;;;1075.50;1024.00;;;;;;5373846;26;20020;-76
2024/04/13 08:05:19;;;;;;;9.02;8.18;;;1075.70;1024.00;;;;;;5373951;26;20450;-77
2024/04/13 08:07:45;;;;;;;10.02;9.05;;;1075.20;1049.60;;;;;;5373393;26;19996;-76
2024/04/13 08:10:11;;;;;;;12.02;8.52;;;1075.40;1024.00;;;;;;5372361;26;20456;-76
2024/04/13 08:12:36;;;;;;;11.63;8.00;;;1075.90;998.40;;;;;;5363057;26;20001;-76
2024/04/13 08:15:05;;;;;;;12.45;9.23;;;1075.40;1024.00;;;;;;5360320;26;20014;-76
2024/04/13 08:17:30;;;;;;;12.57;9.15;;;1075.60;1024.00;;;;;;5373218;26;20012;-77
2024/04/13 08:19:56;;;;;;;10.13;9.13;;;1075.60;998.40;;;;;;5372841;26;20007;-76
2024/04/13 08:22:22;;;;;;;9.77;8.32;;;1050.30;998.40;;;;;;5349523;26;20040;-77
2024/04/13 08:24:49;;;;;;;11.60;8.02;;;1050.30;1024.00;;;;;;5345755;26;20001;-77
2024/04/13 08:27:15;;;;;;;10.88;8.02;;;1050.00;1049.60;;;;;;5343123;26;20073;-76
2024/04/13 08:29:41;;;;;;;10.45;8.68;;;1050.50;1024.00;;;;;;5368651;26;20000;-76
2024/04/13 08:32:07;;;;;;;9.35;8.50;;;1075.30;998.40;;;;;;5376991;26;20082;-76
2024/04/13 08:34:33;;;;;;;8.70;7.60;;;1050.30;1024.00;;;;;;5376056;26;20004;-76
2024/04/13 08:36:59;;;;;;;9.93;8.65;;;1024.70;1049.60;;;;;;5374836;26;20012;-82
2024/04/13 08:39:25;;;;;;;11.15;7.50;;;999.00;1049.60;;;;;;5372732;26;20070;-81
2024/04/13 08:42:03;;;;;;;8.88;8.18;;;998.40;1075.20;;;;;;5372708;26;20036;-81
2024/04/13 08:44:32;;;;;;;8.63;7.93;;;948.00;1075.20;;;;;;5356358;26;20365;-80
2024/04/13 08:47:02;;;;;;;9.02;7.43;;;922.00;1152.00;;;;;;5347154;26;20085;-80
2024/04/13 08:49:30;;;;;;;11.85;7.07;;;;;;;;;;5360369;26;20000;-80
2024/04/13 08:51:57;;;;;;;7.38;6.57;;;820.10;1254.40;;;;;;5370905;26;20001;-79
2024/04/13 08:54:23;;;;;;;8.57;6.47;;;819.80;1254.40;;;;;;5351792;26;19997;-81
2024/04/13 08:56:50;;;;;;;11.00;5.95;;;819.20;1305.60;;;;;;5344642;26;20029;-80
2024/04/13 08:59:17;;;;;;;13.43;6.75;;;794.00;1331.20;;;;;;5364534;26;20005;-79
2024/04/13 09:01:48;;;;;;;11.13;5.75;;;793.70;1356.80;;;;;;5344029;26;20007;-79
2024/04/13 09:04:14;;;;;;;5.50;4.88;;;768.40;1356.80;;;;;;5342795;26;20007;-80
2024/04/13 09:06:43;;;;;;;7.90;6.25;;;743.30;1356.80;;;;;;5370329;26;20158;-80
2024/04/13 09:09:10;;;;;;;6.63;5.80;;;743.20;1382.40;;;;;;5368477;26;20041;-81
2024/04/13 09:11:37;;;;;;;5.88;5.28;;;;;;;;;;5370892;26;20007;-81
2024/04/13 09:14:04;;;;;;;6.97;4.78;;;;;;;;;;5373464;26;20007;-81
2024/04/13 09:16:30;;;;;;;9.43;5.18;;;742.90;1356.80;;;;;;5376451;26;20060;-80
2024/04/13 09:18:57;;;;;;;7.38;5.40;;;742.60;1382.40;;;;;;5376025;26;19992;-80
2024/04/13 09:21:23;;;;;;;11.23;6.82;;;742.40;1408.00;;;;;;5374197;26;20442;-80
2024/04/13 09:23:50;;;;;;;7.72;6.47;;;742.50;1408.00;;;;;;5374374;26;20404;-81
2024/04/13 09:26:16;;;;;;;8.07;6.63;;;717.70;1408.00;;;;;;5376019;26;20434;-80
2024/04/13 09:28:46;;;;;;;6.28;5.03;;;717.60;1408.00;;;;;;5375202;26;20024;-81
2024/04/13 09:31:14;;;;;;;8.35;4.72;;;717.40;1433.60;;;;;;5375864;26;20006;-79
2024/04/13 09:33:40;;;;;;;13.65;5.57;;;717.40;1433.60;;;;;;5370770;26;20458;-79
2024/04/13 09:36:10;;;;;;;9.30;5.35;;;;;;;;;;5362713;26;20007;-79
2024/04/13 09:38:36;;;;;;;10.15;5.55;;;717.30;1459.20;;;;;;5374932;26;20008;-79
2024/04/13 09:41:02;;;;;;;10.48;5.53;;;;;;;;;;5375319;26;20000;-78
2024/04/13 09:43:29;;;;;;;7.65;5.88;;;;;;;;;;5375580;26;20032;-78
2024/04/13 09:45:56;;;;;;;5.97;5.18;;;;;;;;;;5373455;26;20032;-77
2024/04/13 09:48:22;;;;;;;9.13;5.75;;;;;;;;;;5375742;26;20070;-77
2024/04/13 09:50:48;;;;;;;11.43;5.30;;;;;;;;;;5375317;26;19996;-79
2024/04/13 09:53:14;;;;;;;8.48;4.80;;;;;;;;;;5375415;26;20323;-80
2024/04/13 09:55:41;;;;;;;11.13;5.20;;;;;;;;;;5375137;26;20062;-78
2024/04/13 09:58:08;;;;;;;5.93;4.93;;;;;;;;;;5370059;26;19996;-79
2024/04/13 10:00:35;;;;;;;5.97;5.30;;;;;;;;;;5365809;26;20004;-79
2024/04/13 10:03:01;;;;;;;12.82;5.40;;;;;;;;;;5358988;26;20099;-78
2024/04/13 10:05:30;;;;;;;6.03;5.22;;;;;;;;;;5370148;26;20000;-77
2024/04/13 10:07:57;;;;;;;10.40;5.18;;;;;;;;;;5356323;26;20052;-79
2024/04/13 10:10:25;;;;;;;7.03;5.63;;;692.10;1408.00;;;;;;5349565;26;19996;-79
2024/04/13 10:12:51;;;;;;;11.30;6.22;;;;;;;;;;5363732;26;20087;-78
2024/04/13 10:15:17;;;;;;;7.57;5.30;;;;;;;;;;5340061;26;19997;-79
2024/04/13 10:17:44;;;;;;;6.47;5.20;;;691.90;1433.60;;;;;;5353370;26;20074;-77
2024/04/13 10:20:10;;;;;;;6.25;4.95;;;691.80;1433.60;;;;;;5374744;26;19996;-78
2024/04/13 10:22:37;;;;;;;8.90;5.15;;;691.80;1459.20;;;;;;5361663;26;19997;-78
2024/04/13 10:25:04;;;;;;;10.00;5.07;;;691.90;1459.20;;;;;;5345955;26;20077;-77
2024/04/13 10:27:33;;;;;;;20.98;18.77;;;691.90;1459.20;;;;;;5374709;26;20102;-77
2024/04/13 10:30:03;;;;;;;8.05;5.35;;;691.70;1433.60;;;;;;5350919;26;20050;-83
2024/04/13 10:32:29;;;;;;;6.82;4.75;;;691.70;1433.60;;;;;;5373517;26;20000;-78
2024/04/13 10:35:05;;;;;;;5.10;4.38;;;691.70;1433.60;;;;;;5369714;26;20066;-77
2024/04/13 10:37:35;;;;;;;12.75;5.22;;;691.60;1433.60;;;;;;5353537;26;20082;-78
2024/04/13 10:40:04;;;;;;;7.10;4.47;;;691.60;1433.60;;;;;;5358181;26;20338;-79
2024/04/13 10:42:48;;;;;;;7.38;4.78;;;691.60;1408.00;;;;;;5352820;26;20005;-80
2024/04/13 10:45:18;;;;;;;10.60;5.30;;;691.60;1433.60;;;;;;5358376;26;20000;-77
2024/04/13 10:47:45;;;;;;;8.35;5.22;;;;;;;;;;5348152;26;20431;-78
2024/04/13 10:50:12;;;;;;;7.03;5.30;;;;;;;;;;5356155;26;20004;-80
2024/04/13 10:52:38;;;;;;;7.85;4.80;;;;;;;;;;5348594;26;19997;-78
2024/04/13 10:55:05;;;;;;;23.05;13.13;;;691.40;1382.40;;;;;;5353517;26;20134;-77
2024/04/13 10:57:31;;;;;;;18.65;8.73;;;666.30;1382.40;;;;;;5346967;26;20463;-77
2024/04/13 10:59:57;;;;;;;7.72;4.80;;;;;;;;;;5354690;26;20004;-77
2024/04/13 11:02:23;;;;;;;9.18;4.97;;;;;;;;;;5364798;26;20057;-76
2024/04/13 11:04:49;;;;;;;8.32;6.35;;;;;;;;;;5342871;26;20001;-79
2024/04/13 11:07:16;;;;;;;9.20;5.90;;;;;;;;;;5374337;26;20091;-77
2024/04/13 11:09:43;;;;;;;9.50;5.78;;;;;;;;;;5353799;26;20005;-79
2024/04/13 11:12:11;;;;;;;10.23;5.68;;;;;;;;;;5345780;26;20001;-80
2024/04/13 11:14:38;;;;;;;10.65;5.50;;;;;;;;;;5344887;26;20451;-80
2024/04/13 11:17:04;;;;;;;11.77;6.10;;;;;;;;;;5353641;26;20453;-76
2024/04/13 11:19:30;;;;;;;10.07;5.70;;;;;;;;;;5346627;26;20094;-78
2024/04/13 11:21:58;;;;;;;7.00;5.00;;;;;;;;;;5345213;26;20036;-78
2024/04/13 11:24:24;;;;;;;7.50;5.22;;;;;;;;;;5347943;26;20030;-78
2024/04/13 11:26:51;;;;;;;8.90;5.13;;;;;;;;;;5350259;26;20013;-80
2024/04/13 11:29:18;;;;;;;8.68;5.18;;;;;;;;;;5349017;26;20021;-78
2024/04/13 11:31:45;;;;;;;10.55;5.82;;;;;;;;;;5345073;26;20001;-80
2024/04/13 11:34:11;;;;;;;5.60;4.40;;;;;;;;;;5345306;26;20015;-78
2024/04/13 11:36:37;;;;;;;7.32;4.55;;;;;;;;;;5351080;26;20011;-77
2024/04/13 11:39:03;;;;;;;7.13;4.65;;;;;;;;;;5346393;26;20040;-77
2024/04/13 11:41:29;;;;;;;9.70;4.93;;;;;;;;;;5355575;26;20011;-79
2024/04/13 11:43:56;;;;;;;9.48;4.07;;;;;;;;;;5354372;26;20007;-76
2024/04/13 11:46:22;;;;;;;8.35;4.30;;;;;;;;;;5359128;26;20005;-77
2024/04/13 11:48:50;;;;;;;7.95;3.90;;;;;;;;;;5355054;26;20462;-78
2024/04/13 11:51:16;;;;;;;9.13;4.65;;;;;;;;;;5352238;26;19997;-79
2024/04/13 11:53:43;;;;;;;12.05;4.45;;;;;;;;;;5350079;26;20435;-77
2024/04/13 11:56:13;;;;;;;5.75;3.97;;;;;;;;;;5357700;26;19993;-78
2024/04/13 11:58:46;;;;;;;6.80;3.80;;;;;;;;;;5362653;26;19992;-77
2024/04/13 12:01:12;;;;;;;8.68;3.65;;;;;;;;;;5347420;26;20517;-78
2024/04/13 12:03:39;;;;;;;7.10;4.38;;;;;;;;;;5350106;26;20012;-78
2024/04/13 12:06:05;;;;;;;6.68;3.78;;;;;;;;;;5353345;26;20065;-77
2024/04/13 12:08:32;;;;;;;5.60;3.38;;;;;;;;;;5366839;26;19997;-77
2024/04/13 12:10:58;;;;;;;5.07;3.33;;;;;;;;;;5346917;26;20323;-78
2024/04/13 12:13:24;;;;;;;6.75;3.45;;;;;;;;;;5350989;26;20008;-77
2024/04/13 12:15:51;;;;;;;7.40;3.20;;;;;;;;;;5352936;26;20000;-77
2024/04/13 12:18:17;;;;;;;7.93;3.38;;;;;;;;;;5355779;26;20008;-78
2024/04/13 12:20:43;;;;;;;6.43;4.15;;;;;;;;;;5345380;26;20092;-77
2024/04/13 12:23:09;;;;;;;9.73;6.57;;;;;;;;;;5351563;26;19997;-79
2024/04/13 12:25:35;;;;;;;6.65;3.60;;;;;;;;;;5361513;26;19997;-76
2024/04/13 12:28:02;;;;;;;5.22;3.03;;;;;;;;;;5370350;26;20438;-77
2024/04/13 12:30:28;;;;;;;8.85;3.55;;;;;;;;;;5352635;26;20017;-78